Time;durP1;ratioP1;P1;durP2;ratioP2;P2;SDS_P1;SDS_P2;PMS_P1;PMS_P2;Temp;Humidity;BMP_temperature;BMP_pressure;BME280_temperature;BME280_humidity;BME280_pressure;Samples;Min_cycle;Max_cycle;Signal;HPM_P1;HPM_P2
2022/01/12 00:00:15;;;;;;;44.78;18.75;;;;;;;;;;5136733;27;20072;-79
2022/01/12 00:02:41;;;;;;;51.15;19.13;;;;;;;;;;5137208;27;20100;-79
2022/01/12 00:05:08;;;;;;;56.55;19.92;;;;;;;;;;5123673;27;20051;-79
2022/01/12 00:07:34;;;;;;;54.55;19.77;;;;;;;;;;5137281;27;20430;-79
2022/01/12 00:10:00;;;;;;;55.92;21.50;;;;;;;;;;5152167;27;20067;-79
2022/01/12 00:12:27;;;;;;;53.17;20.63;;;;;;;;;;5155566;27;20078;-79
2022/01/12 00:14:53;;;;;;;50.95;20.90;;;;;;;;;;5136058;27;21346;-80
2022/01/12 00:17:20;;;;;;;61.25;21.50;;;;;;;;;;5126512;27;20078;-80
2022/01/12 00:19:46;;;;;;;55.78;21.73;;;;;;;;;;5151639;27;20124;-80
2022/01/12 00:22:13;;;;;;;61.13;22.40;;;;;;;;;;5133668;27;20120;-79
2022/01/12 00:33:13;;;;;;;59.65;22.10;;;;;;;;;;5156331;27;20055;-79
2022/01/12 00:35:44;;;;;;;58.13;21.05;;;;;;;;;;5121405;27;20055;-79
2022/01/12 00:38:11;;;;;;;54.70;22.13;;;;;;;;;;5136562;27;20071;-79
2022/01/12 00:40:42;;;;;;;53.38;20.35;;;;;;;;;;5136583;27;21097;-79
2022/01/12 00:43:09;;;;;;;56.45;21.02;;;;;;;;;;5155240;27;20112;-79
2022/01/12 00:45:38;;;;;;;54.35;20.55;;;;;;;;;;5137043;27;20051;-79
2022/01/12 00:48:05;;;;;;;53.60;21.52;;;;;;;;;;5149562;27;20418;-79
2022/01/12 00:50:32;;;;;;;54.92;21.77;;;;;;;;;;5134300;27;20043;-79
2022/01/12 00:52:58;;;;;;;61.70;21.92;;;;;;;;;;5155504;27;20131;-79
2022/01/12 00:55:24;;;;;;;50.45;21.30;;;;;;;;;;5134807;27;20102;-79
2022/01/12 00:57:51;;;;;;;59.13;22.85;;;;;;;;;;5136699;27;20142;-79
2022/01/12 01:00:21;;;;;;;55.10;21.23;;;;;;;;;;5134634;27;20063;-79
2022/01/12 01:02:47;;;;;;;51.63;21.35;;;;;;;;;;5115767;27;20108;-79
2022/01/12 01:05:19;;;;;;;54.35;20.60;;;;;;;;;;5149267;27;20095;-79
2022/01/12 01:07:46;;;;;;;61.15;21.85;;;;;;;;;;5135281;27;20052;-79
2022/01/12 01:10:17;;;;;;;51.47;21.58;;;;;;;;;;5152077;27;20116;-79
2022/01/12 01:12:45;;;;;;;53.58;21.17;;;;;;;;;;5154364;27;20104;-80
2022/01/12 01:15:15;;;;;;;53.38;20.98;;;;;;;;;;5135389;27;20116;-79
2022/01/12 01:25:42;;;;;;;51.05;20.13;;;;;;;;;;5138761;27;20047;-79
2022/01/12 01:28:08;;;;;;;56.10;21.70;;;;;;;;;;5134033;27;20574;-79
2022/01/12 01:30:36;;;;;;;53.80;21.77;;;;;;;;;;5150859;27;20082;-79
2022/01/12 01:33:07;;;;;;;54.38;22.38;;;;;;;;;;5153672;27;20073;-79
2022/01/12 01:35:35;;;;;;;59.60;21.75;;;;;;;;;;5154222;27;20129;-79
2022/01/12 01:38:02;;;;;;;57.15;21.50;;;;;;;;;;5135708;27;20075;-79
2022/01/12 01:40:30;;;;;;;58.88;21.75;;;;;;;;;;5154125;27;20089;-79
2022/01/12 01:53:42;;;;;;;54.75;21.20;;;;;;;;;;5153969;27;20055;-79
2022/01/12 01:56:09;;;;;;;56.67;21.98;;;;;;;;;;5153609;27;20249;-79
2022/01/12 01:58:35;;;;;;;53.80;22.40;;;;;;;;;;5135054;27;20036;-79
2022/01/12 02:01:02;;;;;;;49.88;21.35;;;;;;;;;;5154077;27;20088;-79
2022/01/12 02:03:29;;;;;;;58.55;21.80;;;;;;;;;;5154203;27;20501;-79
2022/01/12 02:05:56;;;;;;;55.50;22.73;;;;;;;;;;5152285;27;20032;-79
2022/01/12 02:08:23;;;;;;;57.40;23.42;;;;;;;;;;5133500;27;20128;-79
2022/01/12 02:10:53;;;;;;;64.03;23.30;;;;;;;;;;5128793;27;20063;-79
2022/01/12 02:13:20;;;;;;;;;;;;;;;;;;5154626;27;20052;-79
2022/01/12 02:15:47;;;;;;;57.53;22.35;;;;;;;;;;5151868;27;45138;-79
2022/01/12 02:18:39;;;;;;;51.88;20.95;;;;;;;;;;5153099;27;20108;-79
2022/01/12 02:40:32;;;;;;;59.97;22.98;;;;;;;;;;5152567;27;20093;-79
2022/01/12 02:43:14;;;;;;;67.15;23.77;;;;;;;;;;5135035;27;20497;-79
2022/01/12 02:53:44;;;;;;;65.65;23.60;;;;;;;;;;5151377;27;20112;-79
2022/01/12 02:56:12;;;;;;;62.17;23.48;;;;;;;;;;5133423;27;20143;-79
2022/01/12 02:58:39;;;;;;;79.32;23.60;;;;;;;;;;5152703;27;20047;-79
2022/01/12 03:03:40;;;;;;;73.22;23.92;;;;;;;;;;5151799;27;21017;-79
2022/01/12 03:06:08;;;;;;;69.00;23.02;;;;;;;;;;5130255;27;20109;-79
2022/01/12 03:08:37;;;;;;;69.80;24.90;;;;;;;;;;5133982;27;20822;-79
2022/01/12 03:11:08;;;;;;;70.43;24.52;;;;;;;;;;5130850;27;20058;-80
2022/01/12 03:13:34;;;;;;;70.78;24.52;;;;;;;;;;5141690;27;20055;-79
2022/01/12 03:16:08;;;;;;;75.90;24.65;;;;;;;;;;5130994;27;20087;-80
2022/01/12 03:18:34;;;;;;;81.80;24.70;;;;;;;;;;5130348;27;20612;-80
2022/01/12 03:21:00;;;;;;;78.75;25.67;;;;;;;;;;5148180;27;20088;-79
2022/01/12 03:23:27;;;;;;;68.40;24.52;;;;;;;;;;5152705;27;20102;-79
2022/01/12 03:25:54;;;;;;;78.57;25.73;;;;;;;;;;5155842;27;20047;-79
2022/01/12 03:28:20;;;;;;;71.88;24.38;;;;;;;;;;5137494;27;20053;-79
2022/01/12 03:30:53;;;;;;;71.75;23.40;;;;;;;;;;5136287;27;20578;-79
2022/01/12 03:38:51;;;;;;;72.45;23.13;;;;;;;;;;5153636;27;20104;-79
2022/01/12 03:41:17;;;;;;;84.10;24.35;;;;;;;;;;5152674;27;20051;-79
2022/01/12 03:43:44;;;;;;;74.53;24.70;;;;;;;;;;5154998;27;20566;-79
2022/01/12 03:46:10;;;;;;;80.32;24.17;;;;;;;;;;5137763;27;20051;-79
2022/01/12 03:48:37;;;;;;;72.68;22.95;;;;;;;;;;5137229;27;20063;-79
2022/01/12 03:51:03;;;;;;;76.75;25.17;;;;;;;;;;5136057;27;20098;-79
2022/01/12 03:53:29;;;;;;;69.57;24.10;;;;;;;;;;5154528;27;20059;-79
2022/01/12 03:55:56;;;;;;;73.95;24.63;;;;;;;;;;5129874;27;20051;-79
2022/01/12 03:58:22;;;;;;;71.53;23.60;;;;;;;;;;5124412;27;20577;-79
2022/01/12 04:00:48;;;;;;;66.13;22.73;;;;;;;;;;5148961;27;20055;-79
2022/01/12 04:03:16;;;;;;;80.30;24.48;;;;;;;;;;5154803;27;20130;-79
2022/01/12 04:08:28;;;;;;;68.78;23.88;;;;;;;;;;5154970;27;20510;-79
2022/01/12 04:10:57;;;;;;;58.25;21.95;;;;;;;;;;5133986;27;20052;-79
2022/01/12 04:13:25;;;;;;;71.30;23.65;;;;;;;;;;5116073;27;20048;-80
2022/01/12 04:15:56;;;;;;;71.80;23.65;;;;;;;;;;5148540;27;20051;-79
2022/01/12 04:18:22;;;;;;;71.90;23.05;;;;;;;;;;5136481;27;20047;-79
2022/01/12 04:20:50;;;;;;;64.03;24.40;;;;;;;;;;5155136;27;20047;-79
2022/01/12 04:23:18;;;;;;;57.20;21.85;;;;;;;;;;5120177;27;20109;-79
2022/01/12 04:25:46;;;;;;;58.72;22.88;;;;;;;;;;5153097;27;20081;-79
2022/01/12 04:28:13;;;;;;;61.60;22.40;;;;;;;;;;5136506;27;20094;-79
2022/01/12 04:30:39;;;;;;;73.32;23.55;;;;;;;;;;5154286;27;21385;-79
2022/01/12 04:33:06;;;;;;;73.68;24.08;;;;;;;;;;5118635;27;20135;-79
2022/01/12 04:35:36;;;;;;;74.85;24.08;;;;;;;;;;5146951;27;20060;-79
2022/01/12 04:38:03;;;;;;;58.60;22.67;;;;;;;;;;5152433;27;20093;-80
2022/01/12 04:40:29;;;;;;;63.92;23.38;;;;;;;;;;5136771;27;20506;-79
2022/01/12 04:42:57;;;;;;;57.80;22.40;;;;;;;;;;5136331;27;20898;-79
2022/01/12 04:45:38;;;;;;;75.38;23.85;;;;;;;;;;5134784;27;20121;-79
2022/01/12 04:48:20;;;;;;;83.53;23.73;;;;;;;;;;5129082;27;20050;-79
2022/01/12 04:50:47;;;;;;;82.68;24.77;;;;;;;;;;5132803;27;20139;-79
2022/01/12 04:53:14;;;;;;;74.68;24.25;;;;;;;;;;5116368;27;20509;-79
2022/01/12 04:55:41;;;;;;;69.35;24.08;;;;;;;;;;5120820;27;20075;-79
2022/01/12 04:58:08;;;;;;;76.72;24.25;;;;;;;;;;5134003;27;20052;-79
2022/01/12 05:00:36;;;;;;;71.30;23.85;;;;;;;;;;5130340;27;21031;-79
2022/01/12 05:13:46;;;;;;;97.47;26.38;;;;;;;;;;5150213;27;20058;-77
2022/01/12 05:16:12;;;;;;;101.70;26.63;;;;;;;;;;5150895;27;20081;-77
2022/01/12 05:18:40;;;;;;;106.85;28.58;;;;;;;;;;5150799;27;20102;-77
2022/01/12 05:21:06;;;;;;;121.38;28.23;;;;;;;;;;5144035;27;20055;-77
2022/01/12 05:23:33;;;;;;;118.43;27.23;;;;;;;;;;5149617;27;20120;-77
2022/01/12 05:26:00;;;;;;;99.03;27.40;;;;;;;;;;5128201;27;20052;-78
2022/01/12 05:28:27;;;;;;;123.53;28.73;;;;;;;;;;5141196;27;20051;-78
2022/01/12 05:30:54;;;;;;;109.53;28.15;;;;;;;;;;5149973;27;20101;-77
2022/01/12 05:33:25;;;;;;;209.25;32.88;;;;;;;;;;5132497;27;20051;-77
2022/01/12 05:35:52;;;;;;;119.13;27.05;;;;;;;;;;5147555;27;20051;-77
2022/01/12 05:38:18;;;;;;;166.40;31.55;;;;;;;;;;5150718;27;20051;-78
2022/01/12 05:40:46;;;;;;;94.78;26.35;;;;;;;;;;5139308;27;20100;-80
2022/01/12 05:43:13;;;;;;;125.53;28.52;;;;;;;;;;5132537;27;20047;-77
2022/01/12 05:45:44;;;;;;;108.15;28.27;;;;;;;;;;5130127;27;20051;-78
2022/01/12 05:50:38;;;;;;;97.75;26.35;;;;;;;;;;5150097;27;20079;-78
2022/01/12 05:53:04;;;;;;;109.13;27.95;;;;;;;;;;5150210;27;20083;-77
2022/01/12 05:55:31;;;;;;;104.00;27.77;;;;;;;;;;5129487;27;20048;-77
2022/01/12 05:57:57;;;;;;;84.68;25.83;;;;;;;;;;5132139;27;20164;-79
2022/01/12 06:00:24;;;;;;;104.35;26.85;;;;;;;;;;5136649;27;20051;-79
2022/01/12 06:02:51;;;;;;;110.93;27.80;;;;;;;;;;5153549;27;20047;-79
2022/01/12 06:05:19;;;;;;;105.07;28.67;;;;;;;;;;5134216;27;20111;-79
2022/01/12 06:07:46;;;;;;;116.05;28.85;;;;;;;;;;5135102;27;20058;-79
2022/01/12 06:10:12;;;;;;;111.22;27.23;;;;;;;;;;5134814;27;20583;-80
2022/01/12 06:12:39;;;;;;;166.75;30.73;;;;;;;;;;5118725;27;20055;-80
2022/01/12 06:15:05;;;;;;;101.93;26.70;;;;;;;;;;5132705;27;20111;-80
2022/01/12 06:17:32;;;;;;;96.68;27.45;;;;;;;;;;5135592;27;20086;-80
2022/01/12 06:19:58;;;;;;;86.80;25.33;;;;;;;;;;5152583;27;20048;-79
2022/01/12 06:22:24;;;;;;;105.53;27.15;;;;;;;;;;5148504;27;20652;-79
2022/01/12 06:24:51;;;;;;;103.10;26.27;;;;;;;;;;5134362;27;20047;-79
2022/01/12 06:27:20;;;;;;;92.88;25.85;;;;;;;;;;5133825;27;20059;-80
2022/01/12 06:30:02;;;;;;;96.13;26.98;;;;;;;;;;5135400;27;20079;-79
2022/01/12 06:32:32;;;;;;;97.43;26.95;;;;;;;;;;5134942;27;20517;-80
2022/01/12 06:34:58;;;;;;;88.63;25.92;;;;;;;;;;5129890;27;20079;-79
2022/01/12 06:37:24;;;;;;;99.47;26.17;;;;;;;;;;5135083;27;20086;-79
2022/01/12 06:39:51;;;;;;;89.18;25.13;;;;;;;;;;5155717;27;20047;-79
2022/01/12 06:42:18;;;;;;;84.88;27.05;;;;;;;;;;5131824;27;20047;-79
2022/01/12 06:44:45;;;;;;;89.78;25.45;;;;;;;;;;5135913;27;20079;-79
2022/01/12 06:47:12;;;;;;;99.32;26.05;;;;;;;;;;5152671;27;20047;-79
2022/01/12 06:49:38;;;;;;;80.50;24.25;;;;;;;;;;5116626;27;20545;-79
2022/01/12 06:52:05;;;;;;;85.53;25.38;;;;;;;;;;5152297;27;20054;-79
2022/01/12 06:54:32;;;;;;;88.07;26.95;;;;;;;;;;5133626;27;20505;-79
2022/01/12 06:56:58;;;;;;;85.43;25.67;;;;;;;;;;5135262;27;20090;-79
2022/01/12 06:59:24;;;;;;;87.45;26.83;;;;;;;;;;5148935;27;20087;-79
2022/01/12 07:01:51;;;;;;;92.55;25.05;;;;;;;;;;5142404;27;20051;-79
2022/01/12 07:04:20;;;;;;;85.28;25.08;;;;;;;;;;5148465;27;20060;-79
2022/01/12 07:06:46;;;;;;;86.47;24.60;;;;;;;;;;5144911;27;20474;-79
2022/01/12 07:09:15;;;;;;;92.85;26.73;;;;;;;;;;5131886;27;20143;-79
2022/01/12 07:11:42;;;;;;;80.30;24.85;;;;;;;;;;5144726;27;20051;-79
2022/01/12 07:14:08;;;;;;;71.85;24.08;;;;;;;;;;5131509;27;20052;-80
2022/01/12 07:16:35;;;;;;;75.93;24.92;;;;;;;;;;5130361;27;20051;-81
2022/01/12 07:19:01;;;;;;;86.70;27.10;;;;;;;;;;5149100;27;20520;-82
2022/01/12 07:21:29;;;;;;;88.88;28.02;;;;;;;;;;5124389;27;20904;-80
2022/01/12 07:23:56;;;;;;;80.43;25.15;;;;;;;;;;5151641;27;20043;-80
2022/01/12 07:26:23;;;;;;;73.72;22.23;;;;;;;;;;5133766;27;20051;-80
2022/01/12 07:28:50;;;;;;;72.53;20.15;;;;;;;;;;5132297;27;20051;-80
2022/01/12 07:31:16;;;;;;;74.32;20.98;;;;;;;;;;5133395;27;20043;-79
2022/01/12 07:33:43;;;;;;;70.82;22.50;;;;;;;;;;5143615;27;20070;-79
2022/01/12 07:36:09;;;;;;;77.75;22.38;;;;;;;;;;5126006;27;20984;-79
2022/01/12 07:38:35;;;;;;;72.10;20.75;;;;;;;;;;5146364;27;20126;-80
2022/01/12 07:41:02;;;;;;;87.93;22.73;;;;;;;;;;5146824;27;20055;-80
2022/01/12 07:43:28;;;;;;;75.32;21.90;;;;;;;;;;5133688;27;20602;-80
2022/01/12 07:45:55;;;;;;;68.88;21.67;;;;;;;;;;5133144;27;20995;-80
2022/01/12 07:48:24;;;;;;;72.22;21.80;;;;;;;;;;5132568;27;20976;-79
2022/01/12 07:50:50;;;;;;;75.68;20.92;;;;;;;;;;5129902;27;20079;-80
2022/01/12 07:53:17;;;;;;;69.90;20.35;;;;;;;;;;5131303;27;20082;-80
2022/01/12 07:55:43;;;;;;;76.63;20.23;;;;;;;;;;5132839;27;20047;-79
2022/01/12 07:58:10;;;;;;;74.68;19.92;;;;;;;;;;5128421;27;20052;-79
2022/01/12 08:00:36;;;;;;;75.50;19.80;;;;;;;;;;5129545;27;20081;-80
2022/01/12 08:03:03;;;;;;;75.72;20.92;;;;;;;;;;5131732;27;21021;-80
2022/01/12 08:05:29;;;;;;;78.57;20.63;;;;;;;;;;5131870;27;20066;-80
2022/01/12 08:07:56;;;;;;;81.97;20.83;;;;;;;;;;5130027;27;20055;-80
2022/01/12 08:10:22;;;;;;;67.65;21.05;;;;;;;;;;5127931;27;20093;-80
2022/01/12 08:12:48;;;;;;;74.93;21.52;;;;;;;;;;5128633;27;20044;-80
2022/01/12 08:15:15;;;;;;;68.80;22.98;;;;;;;;;;5118422;27;20087;-80
2022/01/12 08:17:41;;;;;;;78.28;22.38;;;;;;;;;;5143798;27;20502;-80
2022/01/12 08:20:11;;;;;;;82.90;23.08;;;;;;;;;;5143070;27;21046;-80
2022/01/12 08:22:38;;;;;;;74.47;22.27;;;;;;;;;;5138246;27;20047;-80
2022/01/12 08:25:05;;;;;;;79.88;19.55;;;;;;;;;;5137848;27;20850;-80
2022/01/12 08:27:32;;;;;;;65.03;17.67;;;;;;;;;;5138175;27;20510;-80
2022/01/12 08:30:01;;;;;;;69.82;16.65;;;;;;;;;;5120940;27;20087;-80
2022/01/12 08:32:28;;;;;;;67.35;15.55;;;;;;;;;;5126971;27;20047;-80
2022/01/12 08:34:57;;;;;;;52.80;13.27;;;;;;;;;;5143416;27;20048;-80
2022/01/12 08:37:25;;;;;;;60.20;14.45;;;;;;;;;;5118303;27;20517;-80
2022/01/12 08:39:52;;;;;;;57.40;13.15;;;;;;;;;;5119731;27;20100;-80
2022/01/12 08:42:19;;;;;;;64.15;15.35;;;;;;;;;;5127293;27;20055;-80
2022/01/12 08:44:45;;;;;;;62.83;15.00;;;;;;;;;;5154165;27;20043;-80
2022/01/12 08:47:12;;;;;;;62.20;15.65;;;;;;;;;;5133395;27;20051;-80
2022/01/12 08:49:38;;;;;;;63.67;15.30;;;;;;;;;;5126673;27;20054;-80
2022/01/12 08:52:05;;;;;;;58.22;14.70;;;;;;;;;;5155037;27;20051;-80
2022/01/12 08:54:31;;;;;;;53.17;13.73;;;;;;;;;;5144394;27;20051;-80
2022/01/12 08:56:58;;;;;;;55.58;14.50;;;;;;;;;;5155521;27;20082;-80
2022/01/12 08:59:24;;;;;;;66.20;15.38;;;;;;;;;;5138413;27;20077;-80
2022/01/12 09:01:51;;;;;;;57.53;14.18;;;;;;;;;;5138040;27;20036;-80
2022/01/12 09:04:17;;;;;;;61.45;14.95;;;;;;;;;;5131055;27;20047;-80
2022/01/12 09:06:49;;;;;;;52.50;12.98;;;;;;;;;;5143081;27;20047;-80
2022/01/12 09:09:15;;;;;;;54.33;14.15;;;;;;;;;;5138350;27;20091;-80
2022/01/12 09:11:42;;;;;;;51.28;13.77;;;;;;;;;;5137272;27;20908;-80
2022/01/12 09:14:08;;;;;;;44.65;12.15;;;;;;;;;;5138379;27;20056;-80
2022/01/12 09:16:35;;;;;;;44.75;12.63;;;;;;;;;;5149044;27;20081;-80
2022/01/12 09:19:01;;;;;;;38.33;13.10;;;;;;;;;;5137824;27;20051;-80
2022/01/12 09:21:28;;;;;;;52.08;12.00;;;;;;;;;;5137354;27;20055;-80
2022/01/12 09:23:54;;;;;;;52.50;12.50;;;;;;;;;;5132766;27;20086;-80
2022/01/12 09:26:21;;;;;;;47.05;13.00;;;;;;;;;;5133979;27;20891;-80
2022/01/12 09:28:48;;;;;;;42.67;12.68;;;;;;;;;;5137548;27;20051;-80
2022/01/12 09:31:15;;;;;;;42.67;11.02;;;;;;;;;;5155727;27;20047;-80
2022/01/12 09:33:41;;;;;;;43.63;11.95;;;;;;;;;;5135458;27;20039;-80
2022/01/12 09:36:07;;;;;;;43.30;11.38;;;;;;;;;;5157325;27;20065;-80
2022/01/12 09:38:34;;;;;;;50.58;12.60;;;;;;;;;;5134503;27;20056;-80
2022/01/12 09:41:02;;;;;;;43.83;12.65;;;;;;;;;;5151257;27;20452;-80
2022/01/12 09:43:33;;;;;;;55.10;13.38;;;;;;;;;;5135725;27;20086;-80
2022/01/12 09:46:00;;;;;;;52.25;15.05;;;;;;;;;;5135648;27;20047;-79
2022/01/12 09:48:33;;;;;;;46.42;13.43;;;;;;;;;;5136729;27;20036;-80
2022/01/12 09:51:01;;;;;;;47.80;13.15;;;;;;;;;;5139353;27;20075;-80
2022/01/12 09:53:31;;;;;;;43.42;12.38;;;;;;;;;;5134688;27;20086;-80
2022/01/12 09:55:58;;;;;;;37.42;10.70;;;;;;;;;;5142960;27;20120;-80
2022/01/12 09:58:24;;;;;;;35.38;10.13;;;;;;;;;;5129265;27;20085;-78
2022/01/12 10:00:58;;;;;;;38.70;10.88;;;;;;;;;;5135769;27;20047;-80
2022/01/12 10:03:29;;;;;;;38.95;10.02;;;;;;;;;;5135770;27;20181;-79
2022/01/12 10:05:56;;;;;;;40.72;9.95;;;;;;;;;;5147975;27;20051;-79
2022/01/12 10:08:22;;;;;;;34.38;9.98;;;;;;;;;;5130680;27;20086;-79
2022/01/12 10:11:18;;;;;;;40.88;10.25;;;;;;;;;;5145734;27;20124;-79
2022/01/12 10:13:54;;;;;;;37.53;10.05;;;;;;;;;;5110176;27;20533;-79
2022/01/12 10:16:26;;;;;;;43.28;10.05;;;;;;;;;;5135149;27;20077;-79
2022/01/12 10:18:53;;;;;;;33.55;9.73;;;;;;;;;;5142603;27;20108;-79
2022/01/12 10:21:26;;;;;;;40.33;10.77;;;;;;;;;;5144186;27;20052;-79
2022/01/12 10:23:56;;;;;;;37.58;9.82;;;;;;;;;;5135122;27;20039;-80
2022/01/12 10:26:35;;;;;;;34.33;10.70;;;;;;;;;;5145769;27;20055;-79
2022/01/12 10:29:05;;;;;;;36.80;10.38;;;;;;;;;;5125729;27;20832;-79
2022/01/12 10:31:52;;;;;;;32.60;10.10;;;;;;;;;;5129985;27;20090;-79
2022/01/12 10:34:25;;;;;;;29.98;9.18;;;;;;;;;;5124076;27;20927;-79
2022/01/12 10:36:52;;;;;;;30.98;9.00;;;;;;;;;;5140866;27;20052;-79
2022/01/12 10:39:19;;;;;;;25.83;9.88;;;;;;;;;;5126939;27;20055;-79
2022/01/12 10:41:57;;;;;;;30.17;9.52;;;;;;;;;;5151050;27;20055;-79
2022/01/12 10:44:24;;;;;;;37.13;10.70;;;;;;;;;;5135290;27;20039;-80
2022/01/12 10:47:10;;;;;;;33.92;10.13;;;;;;;;;;5133632;27;20054;-79
2022/01/12 10:49:37;;;;;;;35.58;10.52;;;;;;;;;;5134308;27;20597;-80
2022/01/12 10:52:12;;;;;;;33.58;10.07;;;;;;;;;;5135182;27;20047;-80
2022/01/12 10:54:42;;;;;;;33.90;9.70;;;;;;;;;;5147228;27;20178;-79
2022/01/12 10:57:13;;;;;;;31.83;8.98;;;;;;;;;;5135067;27;20903;-78
2022/01/12 10:59:40;;;;;;;34.38;10.40;;;;;;;;;;5144911;27;20051;-79
2022/01/12 11:02:09;;;;;;;33.13;9.25;;;;;;;;;;5148207;27;20529;-78
2022/01/12 11:04:40;;;;;;;30.33;10.10;;;;;;;;;;5152968;27;20043;-79
2022/01/12 11:07:07;;;;;;;26.33;8.23;;;;;;;;;;5136732;27;20559;-79
2022/01/12 11:09:34;;;;;;;22.10;7.43;;;;;;;;;;5114638;27;20056;-79
2022/01/12 11:12:01;;;;;;;27.35;8.32;;;;;;;;;;5131556;27;20048;-79
2022/01/12 11:14:28;;;;;;;25.25;8.52;;;;;;;;;;5142429;27;20108;-79
2022/01/12 11:16:54;;;;;;;23.45;8.50;;;;;;;;;;5147925;27;20140;-80
2022/01/12 11:19:21;;;;;;;29.50;7.30;;;;;;;;;;5134209;27;20097;-80
2022/01/12 11:21:56;;;;;;;23.95;7.60;;;;;;;;;;5153225;27;20557;-79
2022/01/12 11:24:25;;;;;;;23.98;8.70;;;;;;;;;;5131139;27;20089;-78
2022/01/12 11:26:52;;;;;;;26.92;8.43;;;;;;;;;;5141877;27;20055;-79
2022/01/12 11:29:29;;;;;;;29.83;8.50;;;;;;;;;;5119599;27;20044;-79
2022/01/12 11:32:05;;;;;;;32.47;8.77;;;;;;;;;;5133712;27;20062;-79
2022/01/12 11:34:32;;;;;;;25.65;8.55;;;;;;;;;;5152892;27;20098;-79
2022/01/12 11:36:58;;;;;;;27.08;8.70;;;;;;;;;;5144753;27;20570;-79
2022/01/12 11:39:30;;;;;;;35.35;8.43;;;;;;;;;;5143954;27;20052;-79
2022/01/12 11:41:57;;;;;;;22.50;6.97;;;;;;;;;;5120438;27;20073;-79
2022/01/12 11:44:25;;;;;;;24.92;7.38;;;;;;;;;;5125516;27;20035;-79
2022/01/12 11:46:53;;;;;;;21.42;6.90;;;;;;;;;;5154464;27;20062;-80
2022/01/12 11:49:25;;;;;;;24.67;7.22;;;;;;;;;;5140796;27;20050;-80
2022/01/12 11:51:56;;;;;;;27.63;7.40;;;;;;;;;;5128794;27;20502;-78
2022/01/12 11:54:30;;;;;;;27.27;7.78;;;;;;;;;;5125609;27;20072;-79
2022/01/12 11:57:04;;;;;;;24.50;7.10;;;;;;;;;;5145413;27;20126;-79
2022/01/12 11:59:39;;;;;;;25.52;7.60;;;;;;;;;;5147925;27;20055;-78
2022/01/12 12:02:09;;;;;;;22.48;7.80;;;;;;;;;;5132819;27;20055;-79
2022/01/12 12:04:36;;;;;;;22.45;6.90;;;;;;;;;;5126386;27;20086;-79
2022/01/12 12:07:06;;;;;;;21.10;7.65;;;;;;;;;;5137310;27;20104;-79
2022/01/12 12:09:42;;;;;;;24.77;7.55;;;;;;;;;;5136695;27;20083;-79
2022/01/12 12:12:29;;;;;;;30.65;7.30;;;;;;;;;;5129120;27;20055;-78
2022/01/12 12:14:59;;;;;;;24.38;7.38;;;;;;;;;;5137513;27;20055;-79
2022/01/12 12:17:27;;;;;;;20.83;6.57;;;;;;;;;;5156015;27;20055;-79
2022/01/12 12:19:54;;;;;;;21.70;6.32;;;;;;;;;;5140940;27;20043;-79
2022/01/12 12:22:25;;;;;;;22.92;7.13;;;;;;;;;;5137368;27;20846;-79
2022/01/12 12:24:53;;;;;;;29.65;8.73;;;;;;;;;;5155857;27;20986;-79
2022/01/12 12:27:20;;;;;;;25.67;7.72;;;;;;;;;;5131031;27;20047;-79
2022/01/12 12:29:48;;;;;;;23.42;7.57;;;;;;;;;;5153699;27;20091;-79
2022/01/12 12:32:32;;;;;;;19.80;6.65;;;;;;;;;;5129137;27;20100;-80
2022/01/12 12:35:00;;;;;;;28.38;9.27;;;;;;;;;;5134907;27;20051;-80
2022/01/12 12:37:33;;;;;;;23.25;7.75;;;;;;;;;;5130886;27;20081;-79
2022/01/12 12:40:09;;;;;;;23.27;7.18;;;;;;;;;;5137997;27;20055;-80
2022/01/12 12:42:38;;;;;;;24.60;8.45;;;;;;;;;;5155725;27;20533;-80
2022/01/12 12:45:04;;;;;;;23.02;7.85;;;;;;;;;;5145396;27;20079;-79
2022/01/12 12:47:32;;;;;;;23.63;8.45;;;;;;;;;;5148711;27;20063;-79
2022/01/12 12:50:01;;;;;;;23.88;7.65;;;;;;;;;;5140741;27;20056;-80
2022/01/12 12:52:32;;;;;;;27.23;7.97;;;;;;;;;;5133960;27;20109;-79
2022/01/12 12:54:59;;;;;;;29.25;9.13;;;;;;;;;;5143194;27;20073;-80
2022/01/12 12:57:27;;;;;;;27.35;8.27;;;;;;;;;;5149416;27;20040;-79
2022/01/12 13:00:09;;;;;;;23.67;7.97;;;;;;;;;;5136556;27;20112;-80
2022/01/12 13:02:36;;;;;;;30.15;8.35;;;;;;;;;;5145811;27;20048;-80
2022/01/12 13:05:07;;;;;;;27.17;9.35;;;;;;;;;;5153043;27;20048;-80
2022/01/12 13:07:33;;;;;;;;;;;;;;;;;;5139399;27;20147;-80
2022/01/12 13:10:04;;;;;;;23.42;7.88;;;;;;;;;;5129967;27;46717;-80
2022/01/12 13:12:40;;;;;;;28.05;8.32;;;;;;;;;;5137908;27;20508;-79
2022/01/12 13:15:08;;;;;;;25.77;8.70;;;;;;;;;;5135592;27;20077;-79
2022/01/12 13:17:37;;;;;;;27.67;8.23;;;;;;;;;;5135827;27;20572;-80
2022/01/12 13:22:37;;;;;;;24.73;8.93;;;;;;;;;;5142347;27;20529;-79
2022/01/12 13:25:08;;;;;;;26.75;8.60;;;;;;;;;;5134789;27;20934;-80
2022/01/12 13:27:35;;;;;;;28.88;9.18;;;;;;;;;;5154949;27;20903;-80
2022/01/12 13:30:02;;;;;;;30.35;8.65;;;;;;;;;;5154303;27;20055;-79
2022/01/12 13:32:28;;;;;;;27.00;9.80;;;;;;;;;;5136369;27;20109;-80
2022/01/12 13:35:00;;;;;;;27.27;8.18;;;;;;;;;;5133498;27;20047;-79
2022/01/12 13:37:27;;;;;;;22.52;8.50;;;;;;;;;;5120244;27;20303;-80
2022/01/12 13:40:20;;;;;;;32.78;9.30;;;;;;;;;;5135169;27;20113;-79
2022/01/12 13:42:54;;;;;;;26.48;8.20;;;;;;;;;;5136569;27;20097;-80
2022/01/12 13:45:26;;;;;;;26.67;8.90;;;;;;;;;;5156124;27;20055;-80
2022/01/12 13:47:59;;;;;;;27.17;8.70;;;;;;;;;;5119059;27;20139;-80
2022/01/12 13:50:36;;;;;;;29.50;11.07;;;;;;;;;;5138561;27;20104;-80
2022/01/12 13:53:06;;;;;;;27.08;8.55;;;;;;;;;;5131761;27;20828;-79
2022/01/12 13:55:33;;;;;;;30.67;9.80;;;;;;;;;;5134695;27;20238;-77
2022/01/12 13:58:04;;;;;;;25.98;8.02;;;;;;;;;;5146649;27;20059;-77
2022/01/12 14:00:33;;;;;;;25.92;8.63;;;;;;;;;;5146713;27;20058;-77
2022/01/12 14:02:59;;;;;;;32.00;9.18;;;;;;;;;;5140173;27;20124;-77
2022/01/12 14:05:36;;;;;;;30.85;8.70;;;;;;;;;;5125837;27;20059;-78
2022/01/12 14:08:11;;;;;;;23.65;8.10;;;;;;;;;;5145106;27;20058;-78
2022/01/12 14:10:40;;;;;;;27.27;9.23;;;;;;;;;;5151899;27;20065;-77
2022/01/12 14:13:07;;;;;;;27.55;8.70;;;;;;;;;;5137465;27;20051;-78
2022/01/12 14:15:33;;;;;;;28.20;9.77;;;;;;;;;;5154954;27;20040;-78
2022/01/12 14:18:00;;;;;;;28.50;9.82;;;;;;;;;;5136313;27;20056;-78
2022/01/12 14:20:30;;;;;;;25.33;9.30;;;;;;;;;;5158125;27;20036;-78
2022/01/12 14:22:58;;;;;;;31.50;10.73;;;;;;;;;;5148498;27;20051;-78
2022/01/12 14:25:42;;;;;;;31.58;12.75;;;;;;;;;;5139983;27;20128;-80
2022/01/12 14:28:09;;;;;;;28.15;11.25;;;;;;;;;;5141646;27;20043;-79
2022/01/12 14:30:37;;;;;;;30.10;10.75;;;;;;;;;;5154615;27;20055;-80
2022/01/12 14:33:03;;;;;;;30.92;11.18;;;;;;;;;;5162553;27;20051;-79
2022/01/12 14:35:29;;;;;;;27.83;11.23;;;;;;;;;;5142054;27;20072;-79
2022/01/12 14:37:56;;;;;;;36.67;11.35;;;;;;;;;;5144011;27;20509;-81
2022/01/12 14:40:23;;;;;;;38.28;14.10;;;;;;;;;;5121365;27;20052;-77
2022/01/12 14:42:52;;;;;;;28.85;11.60;;;;;;;;;;5128363;27;20067;-78
2022/01/12 14:45:22;;;;;;;35.53;12.18;;;;;;;;;;5130755;27;20032;-78
2022/01/12 14:47:48;;;;;;;35.88;13.93;;;;;;;;;;5135847;27;20142;-78
2022/01/12 14:50:14;;;;;;;35.25;15.18;;;;;;;;;;5136822;27;20070;-80
2022/01/12 14:52:43;;;;;;;40.05;16.40;;;;;;;;;;5152897;27;20079;-78
2022/01/12 14:55:10;;;;;;;52.00;22.27;;;;;;;;;;5118843;27;20093;-77
2022/01/12 14:57:37;;;;;;;30.65;11.02;;;;;;;;;;5131779;27;20072;-77
2022/01/12 15:00:05;;;;;;;41.55;12.60;;;;;;;;;;5131838;27;20271;-78
2022/01/12 15:02:33;;;;;;;32.80;11.82;;;;;;;;;;5128940;27;20059;-77
2022/01/12 15:04:59;;;;;;;38.30;12.73;;;;;;;;;;5136736;27;20059;-78
2022/01/12 15:07:27;;;;;;;31.35;12.00;;;;;;;;;;5135019;27;20096;-77
2022/01/12 15:09:57;;;;;;;35.03;12.55;;;;;;;;;;5137123;27;20051;-78
2022/01/12 15:12:31;;;;;;;35.55;12.88;;;;;;;;;;5127355;27;20051;-78
2022/01/12 15:14:58;;;;;;;37.58;13.30;;;;;;;;;;5129133;27;20086;-77
2022/01/12 15:17:24;;;;;;;43.13;13.10;;;;;;;;;;5149788;27;20052;-77
2022/01/12 15:19:51;;;;;;;37.15;14.18;;;;;;;;;;5124591;27;20165;-78
2022/01/12 15:22:17;;;;;;;38.33;14.25;;;;;;;;;;5134025;27;20055;-78
2022/01/12 15:24:43;;;;;;;40.35;14.55;;;;;;;;;;5149382;27;20087;-78
2022/01/12 15:27:10;;;;;;;37.63;13.95;;;;;;;;;;5136018;27;20119;-78
2022/01/12 15:29:36;;;;;;;31.35;12.43;;;;;;;;;;5131266;27;20055;-78
2022/01/12 15:32:03;;;;;;;37.40;13.75;;;;;;;;;;5134361;27;20657;-78
2022/01/12 15:34:29;;;;;;;36.47;13.95;;;;;;;;;;5132247;27;20058;-78
2022/01/12 15:36:58;;;;;;;33.90;13.27;;;;;;;;;;5146445;27;20530;-78
2022/01/12 15:39:25;;;;;;;38.85;13.75;;;;;;;;;;5150071;27;20097;-76
2022/01/12 15:41:51;;;;;;;33.70;13.48;;;;;;;;;;5135875;27;20055;-78
2022/01/12 15:44:17;;;;;;;38.40;13.27;;;;;;;;;;5131222;27;20112;-78
2022/01/12 15:46:44;;;;;;;32.03;12.93;;;;;;;;;;5143463;27;20518;-78
2022/01/12 15:49:10;;;;;;;36.38;13.23;;;;;;;;;;5129098;27;20051;-77